sensor_id;sensor_type;location;lat;lon;timestamp;temperature;humidity
21602;DHT22;10963;50.934;4.668;2023-02-28T00:01:24;1.60;99.90
21602;DHT22;10963;50.934;4.668;2023-02-28T00:03:53;1.60;99.90
21602;DHT22;10963;50.934;4.668;2023-02-28T00:06:19;1.60;99.90
21602;DHT22;10963;50.934;4.668;2023-02-28T00:08:48;1.60;99.90
21602;DHT22;10963;50.934;4.668;2023-02-28T00:11:17;1.60;99.90
21602;DHT22;10963;50.934;4.668;2023-02-28T00:13:45;1.50;99.90
21602;DHT22;10963;50.934;4.668;2023-02-28T00:16:20;1.50;99.90
21602;DHT22;10963;50.934;4.668;2023-02-28T00:18:46;1.40;99.90
21602;DHT22;10963;50.934;4.668;2023-02-28T00:21:13;1.40;99.90
21602;DHT22;10963;50.934;4.668;2023-02-28T00:23:41;1.40;99.90
21602;DHT22;10963;50.934;4.668;2023-02-28T00:26:09;1.40;99.90
21602;DHT22;10963;50.934;4.668;2023-02-28T00:28:37;1.40;99.90
21602;DHT22;10963;50.934;4.668;2023-02-28T00:31:03;1.30;99.90
21602;DHT22;10963;50.934;4.668;2023-02-28T00:33:31;1.30;99.90
21602;DHT22;10963;50.934;4.668;2023-02-28T00:36:08;1.40;99.90
21602;DHT22;10963;50.934;4.668;2023-02-28T00:38:34;1.40;99.90
21602;DHT22;10963;50.934;4.668;2023-02-28T00:41:04;1.40;99.90
21602;DHT22;10963;50.934;4.668;2023-02-28T00:43:31;1.40;99.90
21602;DHT22;10963;50.934;4.668;2023-02-28T00:45:59;1.40;99.90
21602;DHT22;10963;50.934;4.668;2023-02-28T00:48:25;1.40;99.90
21602;DHT22;10963;50.934;4.668;2023-02-28T00:50:51;1.30;99.90
21602;DHT22;10963;50.934;4.668;2023-02-28T00:53:19;1.30;99.90
21602;DHT22;10963;50.934;4.668;2023-02-28T00:55:48;1.30;99.90
21602;DHT22;10963;50.934;4.668;2023-02-28T00:58:13;1.20;99.90
21602;DHT22;10963;50.934;4.668;2023-02-28T01:00:42;1.10;99.90
21602;DHT22;10963;50.934;4.668;2023-02-28T01:03:10;1.20;99.90
21602;DHT22;10963;50.934;4.668;2023-02-28T01:05:38;1.10;99.90
21602;DHT22;10963;50.934;4.668;2023-02-28T01:08:04;1.10;99.90
21602;DHT22;10963;50.934;4.668;2023-02-28T01:10:32;1.00;99.90
21602;DHT22;10963;50.934;4.668;2023-02-28T01:12:58;1.00;99.90
21602;DHT22;10963;50.934;4.668;2023-02-28T01:15:24;1.00;99.90
21602;DHT22;10963;50.934;4.668;2023-02-28T01:17:49;0.90;99.90
21602;DHT22;10963;50.934;4.668;2023-02-28T01:20:17;0.80;99.90
21602;DHT22;10963;50.934;4.668;2023-02-28T01:22:43;0.80;99.90
21602;DHT22;10963;50.934;4.668;2023-02-28T01:25:09;0.80;99.90
21602;DHT22;10963;50.934;4.668;2023-02-28T01:27:35;0.70;99.90
21602;DHT22;10963;50.934;4.668;2023-02-28T01:30:02;0.70;99.90
21602;DHT22;10963;50.934;4.668;2023-02-28T01:32:28;0.80;99.90
21602;DHT22;10963;50.934;4.668;2023-02-28T01:34:58;0.60;99.90
21602;DHT22;10963;50.934;4.668;2023-02-28T01:37:29;0.70;99.90
21602;DHT22;10963;50.934;4.668;2023-02-28T01:39:54;0.80;99.90
21602;DHT22;10963;50.934;4.668;2023-02-28T01:42:22;0.80;99.90
21602;DHT22;10963;50.934;4.668;2023-02-28T01:45:40;0.80;99.90
21602;DHT22;10963;50.934;4.668;2023-02-28T01:48:02;0.80;99.90
21602;DHT22;10963;50.934;4.668;2023-02-28T01:50:34;1.10;99.90
21602;DHT22;10963;50.934;4.668;2023-02-28T01:53:05;0.90;99.90
21602;DHT22;10963;50.934;4.668;2023-02-28T01:55:32;0.90;99.90
21602;DHT22;10963;50.934;4.668;2023-02-28T01:58:02;0.80;99.90
21602;DHT22;10963;50.934;4.668;2023-02-28T02:00:30;0.80;99.90
21602;DHT22;10963;50.934;4.668;2023-02-28T02:03:06;0.70;99.90
21602;DHT22;10963;50.934;4.668;2023-02-28T02:05:37;0.60;99.90
21602;DHT22;10963;50.934;4.668;2023-02-28T02:08:20;0.60;99.90
21602;DHT22;10963;50.934;4.668;2023-02-28T02:10:51;0.60;99.90
21602;DHT22;10963;50.934;4.668;2023-02-28T02:18:50;0.60;99.90
21602;DHT22;10963;50.934;4.668;2023-02-28T02:30:21;0.40;99.90
21602;DHT22;10963;50.934;4.668;2023-02-28T02:38:35;0.30;99.90
21602;DHT22;10963;50.934;4.668;2023-02-28T02:44:30;0.20;99.90
21602;DHT22;10963;50.934;4.668;2023-02-28T02:47:12;0.20;99.90
21602;DHT22;10963;50.934;4.668;2023-02-28T02:49:42;0.10;99.90
21602;DHT22;10963;50.934;4.668;2023-02-28T02:52:11;0.10;99.90
21602;DHT22;10963;50.934;4.668;2023-02-28T02:54:41;0.00;99.90
21602;DHT22;10963;50.934;4.668;2023-02-28T02:57:12;-0.10;99.90
21602;DHT22;10963;50.934;4.668;2023-02-28T02:59:40;-0.10;99.90
21602;DHT22;10963;50.934;4.668;2023-02-28T03:02:11;-0.20;99.90
21602;DHT22;10963;50.934;4.668;2023-02-28T03:04:43;-0.20;99.90
21602;DHT22;10963;50.934;4.668;2023-02-28T03:07:11;-0.20;99.90
21602;DHT22;10963;50.934;4.668;2023-02-28T03:09:37;-0.20;99.90
21602;DHT22;10963;50.934;4.668;2023-02-28T03:17:48;-0.20;99.90
21602;DHT22;10963;50.934;4.668;2023-02-28T03:20:49;-0.20;99.90
21602;DHT22;10963;50.934;4.668;2023-02-28T03:23:19;-0.30;99.90
21602;DHT22;10963;50.934;4.668;2023-02-28T03:26:00;-0.30;99.90
21602;DHT22;10963;50.934;4.668;2023-02-28T03:31:52;-0.30;99.90
21602;DHT22;10963;50.934;4.668;2023-02-28T03:37:02;-0.40;99.90
21602;DHT22;10963;50.934;4.668;2023-02-28T03:39:43;-0.40;99.90
21602;DHT22;10963;50.934;4.668;2023-02-28T03:42:15;-0.40;99.90
21602;DHT22;10963;50.934;4.668;2023-02-28T03:44:49;-0.40;99.90
21602;DHT22;10963;50.934;4.668;2023-02-28T03:47:21;-0.40;99.90
21602;DHT22;10963;50.934;4.668;2023-02-28T03:49:57;-0.40;99.90
21602;DHT22;10963;50.934;4.668;2023-02-28T03:52:27;-0.40;99.90
21602;DHT22;10963;50.934;4.668;2023-02-28T03:54:59;-0.40;99.90
21602;DHT22;10963;50.934;4.668;2023-02-28T04:02:39;-0.60;99.90
21602;DHT22;10963;50.934;4.668;2023-02-28T04:05:08;-0.70;99.90
21602;DHT22;10963;50.934;4.668;2023-02-28T04:07:37;-0.70;99.90
21602;DHT22;10963;50.934;4.668;2023-02-28T04:10:04;-0.70;99.90
21602;DHT22;10963;50.934;4.668;2023-02-28T04:12:30;-0.50;99.90
21602;DHT22;10963;50.934;4.668;2023-02-28T04:14:55;-0.40;99.90
21602;DHT22;10963;50.934;4.668;2023-02-28T04:17:21;-0.20;99.90
21602;DHT22;10963;50.934;4.668;2023-02-28T04:19:49;-0.20;99.90
21602;DHT22;10963;50.934;4.668;2023-02-28T04:22:15;-0.10;99.90
21602;DHT22;10963;50.934;4.668;2023-02-28T04:24:42;-0.10;99.90
21602;DHT22;10963;50.934;4.668;2023-02-28T04:27:10;0.00;99.90
21602;DHT22;10963;50.934;4.668;2023-02-28T04:29:36;0.00;99.90
21602;DHT22;10963;50.934;4.668;2023-02-28T04:32:04;0.00;99.90
21602;DHT22;10963;50.934;4.668;2023-02-28T04:34:31;0.10;99.90
21602;DHT22;10963;50.934;4.668;2023-02-28T04:37:00;0.10;99.90
21602;DHT22;10963;50.934;4.668;2023-02-28T04:39:26;0.10;99.90
21602;DHT22;10963;50.934;4.668;2023-02-28T04:41:52;0.10;99.90
21602;DHT22;10963;50.934;4.668;2023-02-28T04:44:17;0.10;99.90
21602;DHT22;10963;50.934;4.668;2023-02-28T04:46:44;0.10;99.90
21602;DHT22;10963;50.934;4.668;2023-02-28T04:49:12;0.10;99.90
21602;DHT22;10963;50.934;4.668;2023-02-28T04:51:41;0.10;99.90
21602;DHT22;10963;50.934;4.668;2023-02-28T04:54:07;0.00;99.90
21602;DHT22;10963;50.934;4.668;2023-02-28T04:56:33;0.10;99.90
21602;DHT22;10963;50.934;4.668;2023-02-28T04:58:59;0.10;99.90
21602;DHT22;10963;50.934;4.668;2023-02-28T05:01:33;0.10;99.90
21602;DHT22;10963;50.934;4.668;2023-02-28T05:04:01;0.00;99.90
21602;DHT22;10963;50.934;4.668;2023-02-28T05:06:28;0.10;99.90
21602;DHT22;10963;50.934;4.668;2023-02-28T05:08:55;0.50;99.90
21602;DHT22;10963;50.934;4.668;2023-02-28T05:11:30;0.60;99.90
21602;DHT22;10963;50.934;4.668;2023-02-28T05:14:03;0.60;99.90
21602;DHT22;10963;50.934;4.668;2023-02-28T05:16:30;0.50;99.90
21602;DHT22;10963;50.934;4.668;2023-02-28T05:18:56;0.40;99.90
21602;DHT22;10963;50.934;4.668;2023-02-28T05:23:53;0.40;99.90
21602;DHT22;10963;50.934;4.668;2023-02-28T05:26:19;0.40;99.90
21602;DHT22;10963;50.934;4.668;2023-02-28T05:28:45;0.40;99.90
21602;DHT22;10963;50.934;4.668;2023-02-28T05:31:11;0.40;99.90
21602;DHT22;10963;50.934;4.668;2023-02-28T05:33:39;0.50;99.90
21602;DHT22;10963;50.934;4.668;2023-02-28T05:36:10;0.60;99.90
21602;DHT22;10963;50.934;4.668;2023-02-28T05:38:38;0.50;99.90
21602;DHT22;10963;50.934;4.668;2023-02-28T05:41:12;0.50;99.90
21602;DHT22;10963;50.934;4.668;2023-02-28T05:43:43;0.60;99.90
21602;DHT22;10963;50.934;4.668;2023-02-28T05:46:11;0.60;99.90
21602;DHT22;10963;50.934;4.668;2023-02-28T05:48:40;0.60;99.90
21602;DHT22;10963;50.934;4.668;2023-02-28T05:51:07;0.60;99.90
21602;DHT22;10963;50.934;4.668;2023-02-28T05:53:34;0.60;99.90
21602;DHT22;10963;50.934;4.668;2023-02-28T05:56:00;0.70;99.90
21602;DHT22;10963;50.934;4.668;2023-02-28T05:58:28;0.60;99.90
21602;DHT22;10963;50.934;4.668;2023-02-28T06:00:59;0.80;99.90
21602;DHT22;10963;50.934;4.668;2023-02-28T06:03:30;0.80;99.90
21602;DHT22;10963;50.934;4.668;2023-02-28T06:05:56;0.80;99.90
21602;DHT22;10963;50.934;4.668;2023-02-28T06:08:24;0.70;99.90
21602;DHT22;10963;50.934;4.668;2023-02-28T06:10:52;0.80;99.90
21602;DHT22;10963;50.934;4.668;2023-02-28T06:13:18;0.80;99.90
21602;DHT22;10963;50.934;4.668;2023-02-28T06:15:46;0.70;99.90
21602;DHT22;10963;50.934;4.668;2023-02-28T06:18:14;0.70;99.90
21602;DHT22;10963;50.934;4.668;2023-02-28T06:20:40;0.70;99.90
21602;DHT22;10963;50.934;4.668;2023-02-28T06:23:05;1.00;99.90
21602;DHT22;10963;50.934;4.668;2023-02-28T06:25:31;1.00;99.90
21602;DHT22;10963;50.934;4.668;2023-02-28T06:27:59;1.00;99.90
21602;DHT22;10963;50.934;4.668;2023-02-28T06:30:25;1.00;99.90
21602;DHT22;10963;50.934;4.668;2023-02-28T06:32:53;1.10;99.90
21602;DHT22;10963;50.934;4.668;2023-02-28T06:35:19;1.30;99.90
21602;DHT22;10963;50.934;4.668;2023-02-28T06:37:44;1.40;99.90
21602;DHT22;10963;50.934;4.668;2023-02-28T06:40:11;1.30;99.90
21602;DHT22;10963;50.934;4.668;2023-02-28T06:42:41;1.40;99.90
21602;DHT22;10963;50.934;4.668;2023-02-28T06:45:13;1.20;99.90
21602;DHT22;10963;50.934;4.668;2023-02-28T06:47:41;1.10;99.90
21602;DHT22;10963;50.934;4.668;2023-02-28T06:50:10;1.20;99.90
21602;DHT22;10963;50.934;4.668;2023-02-28T06:52:36;1.20;99.90
21602;DHT22;10963;50.934;4.668;2023-02-28T06:55:07;1.20;99.90
21602;DHT22;10963;50.934;4.668;2023-02-28T06:57:34;1.30;99.90
21602;DHT22;10963;50.934;4.668;2023-02-28T07:00:07;1.30;99.90
21602;DHT22;10963;50.934;4.668;2023-02-28T07:02:35;1.30;99.90
21602;DHT22;10963;50.934;4.668;2023-02-28T07:05:01;1.50;99.90
21602;DHT22;10963;50.934;4.668;2023-02-28T07:07:27;1.60;99.90
21602;DHT22;10963;50.934;4.668;2023-02-28T07:09:52;1.60;99.90
21602;DHT22;10963;50.934;4.668;2023-02-28T07:12:18;1.70;99.90
21602;DHT22;10963;50.934;4.668;2023-02-28T07:14:46;1.60;99.90
21602;DHT22;10963;50.934;4.668;2023-02-28T07:17:12;1.50;99.90
21602;DHT22;10963;50.934;4.668;2023-02-28T07:19:40;1.60;99.90
21602;DHT22;10963;50.934;4.668;2023-02-28T07:22:10;1.90;99.90
21602;DHT22;10963;50.934;4.668;2023-02-28T07:24:35;1.90;99.90
21602;DHT22;10963;50.934;4.668;2023-02-28T07:27:04;1.80;99.90
21602;DHT22;10963;50.934;4.668;2023-02-28T07:29:30;1.60;99.90
21602;DHT22;10963;50.934;4.668;2023-02-28T07:31:56;1.60;99.90
21602;DHT22;10963;50.934;4.668;2023-02-28T07:34:24;1.60;99.90
21602;DHT22;10963;50.934;4.668;2023-02-28T07:36:53;1.90;99.90
21602;DHT22;10963;50.934;4.668;2023-02-28T07:39:20;1.70;99.90
21602;DHT22;10963;50.934;4.668;2023-02-28T07:41:49;1.60;99.90
21602;DHT22;10963;50.934;4.668;2023-02-28T07:44:15;1.60;99.90
21602;DHT22;10963;50.934;4.668;2023-02-28T07:46:41;1.70;99.90
21602;DHT22;10963;50.934;4.668;2023-02-28T07:49:07;1.60;99.90
21602;DHT22;10963;50.934;4.668;2023-02-28T07:51:33;1.50;99.90
21602;DHT22;10963;50.934;4.668;2023-02-28T07:53:59;1.60;99.90
21602;DHT22;10963;50.934;4.668;2023-02-28T07:56:27;1.60;99.90
21602;DHT22;10963;50.934;4.668;2023-02-28T07:58:52;1.50;99.90
21602;DHT22;10963;50.934;4.668;2023-02-28T08:01:19;1.50;99.90
21602;DHT22;10963;50.934;4.668;2023-02-28T08:03:45;1.50;99.90
21602;DHT22;10963;50.934;4.668;2023-02-28T08:06:17;1.60;99.90
21602;DHT22;10963;50.934;4.668;2023-02-28T08:08:43;1.70;99.90
21602;DHT22;10963;50.934;4.668;2023-02-28T08:11:09;1.70;99.90
21602;DHT22;10963;50.934;4.668;2023-02-28T08:13:40;1.70;99.90
21602;DHT22;10963;50.934;4.668;2023-02-28T08:16:07;1.80;99.90
21602;DHT22;10963;50.934;4.668;2023-02-28T08:18:35;1.80;99.90
21602;DHT22;10963;50.934;4.668;2023-02-28T08:21:08;1.80;99.90
21602;DHT22;10963;50.934;4.668;2023-02-28T08:23:37;1.90;99.90
21602;DHT22;10963;50.934;4.668;2023-02-28T08:26:04;2.00;99.90
21602;DHT22;10963;50.934;4.668;2023-02-28T08:28:29;2.00;99.90
21602;DHT22;10963;50.934;4.668;2023-02-28T08:30:55;2.20;99.90
21602;DHT22;10963;50.934;4.668;2023-02-28T08:33:21;2.20;99.90
21602;DHT22;10963;50.934;4.668;2023-02-28T08:35:48;2.20;99.90
21602;DHT22;10963;50.934;4.668;2023-02-28T08:38:18;2.30;99.90
21602;DHT22;10963;50.934;4.668;2023-02-28T08:40:43;2.40;99.90
21602;DHT22;10963;50.934;4.668;2023-02-28T08:43:09;2.40;99.90
21602;DHT22;10963;50.934;4.668;2023-02-28T08:45:37;2.50;99.90
21602;DHT22;10963;50.934;4.668;2023-02-28T08:48:03;2.60;99.90
21602;DHT22;10963;50.934;4.668;2023-02-28T08:50:29;2.70;99.90
21602;DHT22;10963;50.934;4.668;2023-02-28T08:52:57;2.80;99.90
21602;DHT22;10963;50.934;4.668;2023-02-28T08:55:23;2.90;99.90
21602;DHT22;10963;50.934;4.668;2023-02-28T08:57:49;2.80;99.90
21602;DHT22;10963;50.934;4.668;2023-02-28T09:00:17;2.90;99.90
21602;DHT22;10963;50.934;4.668;2023-02-28T09:02:43;2.90;99.90
21602;DHT22;10963;50.934;4.668;2023-02-28T09:05:11;3.00;99.90
21602;DHT22;10963;50.934;4.668;2023-02-28T09:07:39;3.20;99.90
21602;DHT22;10963;50.934;4.668;2023-02-28T09:10:05;3.20;99.90
21602;DHT22;10963;50.934;4.668;2023-02-28T09:12:35;3.20;99.90
21602;DHT22;10963;50.934;4.668;2023-02-28T09:15:02;3.30;99.90
21602;DHT22;10963;50.934;4.668;2023-02-28T09:17:34;3.30;99.90
21602;DHT22;10963;50.934;4.668;2023-02-28T09:19:59;3.40;99.90
21602;DHT22;10963;50.934;4.668;2023-02-28T09:22:27;3.40;99.90
21602;DHT22;10963;50.934;4.668;2023-02-28T09:24:53;3.40;99.90
21602;DHT22;10963;50.934;4.668;2023-02-28T09:27:19;3.60;99.90
21602;DHT22;10963;50.934;4.668;2023-02-28T09:29:47;3.60;99.90
21602;DHT22;10963;50.934;4.668;2023-02-28T09:32:15;3.70;99.90
21602;DHT22;10963;50.934;4.668;2023-02-28T09:34:42;3.70;99.90
21602;DHT22;10963;50.934;4.668;2023-02-28T09:37:08;3.80;99.90
21602;DHT22;10963;50.934;4.668;2023-02-28T09:39:36;3.70;99.90
21602;DHT22;10963;50.934;4.668;2023-02-28T09:42:02;3.80;99.90
21602;DHT22;10963;50.934;4.668;2023-02-28T09:44:37;3.90;99.90
21602;DHT22;10963;50.934;4.668;2023-02-28T09:47:33;4.00;99.90
21602;DHT22;10963;50.934;4.668;2023-02-28T09:50:23;4.00;99.90
21602;DHT22;10963;50.934;4.668;2023-02-28T09:52:52;4.00;99.90
21602;DHT22;10963;50.934;4.668;2023-02-28T09:57:48;4.00;99.90
21602;DHT22;10963;50.934;4.668;2023-02-28T10:00:18;4.10;99.90
21602;DHT22;10963;50.934;4.668;2023-02-28T10:03:04;4.40;99.90
21602;DHT22;10963;50.934;4.668;2023-02-28T10:05:42;4.50;99.90
21602;DHT22;10963;50.934;4.668;2023-02-28T10:11:16;4.30;99.90
21602;DHT22;10963;50.934;4.668;2023-02-28T10:14:00;4.40;99.90
21602;DHT22;10963;50.934;4.668;2023-02-28T10:19:33;4.40;99.90
21602;DHT22;10963;50.934;4.668;2023-02-28T10:22:08;4.40;99.90
21602;DHT22;10963;50.934;4.668;2023-02-28T10:24:44;4.40;99.90
21602;DHT22;10963;50.934;4.668;2023-02-28T10:27:24;4.30;99.90
21602;DHT22;10963;50.934;4.668;2023-02-28T10:29:55;4.40;99.90
21602;DHT22;10963;50.934;4.668;2023-02-28T10:35:38;4.50;99.90
21602;DHT22;10963;50.934;4.668;2023-02-28T10:37:47;4.50;99.90
21602;DHT22;10963;50.934;4.668;2023-02-28T10:45:23;4.50;99.90
21602;DHT22;10963;50.934;4.668;2023-02-28T10:47:51;4.50;99.90
21602;DHT22;10963;50.934;4.668;2023-02-28T10:56:12;5.10;99.90
21602;DHT22;10963;50.934;4.668;2023-02-28T11:01:41;5.20;99.90
21602;DHT22;10963;50.934;4.668;2023-02-28T11:04:39;5.20;99.90
21602;DHT22;10963;50.934;4.668;2023-02-28T11:09:49;5.00;99.90
21602;DHT22;10963;50.934;4.668;2023-02-28T11:12:36;5.10;99.90
21602;DHT22;10963;50.934;4.668;2023-02-28T11:15:06;5.10;99.90
21602;DHT22;10963;50.934;4.668;2023-02-28T11:17:44;5.10;99.90
21602;DHT22;10963;50.934;4.668;2023-02-28T11:20:23;5.20;99.90
21602;DHT22;10963;50.934;4.668;2023-02-28T11:22:53;5.30;99.90
21602;DHT22;10963;50.934;4.668;2023-02-28T11:25:36;5.20;99.90
21602;DHT22;10963;50.934;4.668;2023-02-28T11:28:04;5.20;99.90
21602;DHT22;10963;50.934;4.668;2023-02-28T11:32:57;5.50;99.90
21602;DHT22;10963;50.934;4.668;2023-02-28T11:37:52;5.40;99.90
21602;DHT22;10963;50.934;4.668;2023-02-28T11:40:36;5.50;99.90
21602;DHT22;10963;50.934;4.668;2023-02-28T11:46:27;5.50;99.60
21602;DHT22;10963;50.934;4.668;2023-02-28T11:52:02;5.60;98.80
21602;DHT22;10963;50.934;4.668;2023-02-28T12:19:22;6.00;98.10
21602;DHT22;10963;50.934;4.668;2023-02-28T12:27:20;6.20;96.10
21602;DHT22;10963;50.934;4.668;2023-02-28T12:29:54;6.20;96.30
21602;DHT22;10963;50.934;4.668;2023-02-28T12:37:40;6.20;96.20
21602;DHT22;10963;50.934;4.668;2023-02-28T12:40:15;6.30;96.40
21602;DHT22;10963;50.934;4.668;2023-02-28T12:42:46;6.50;96.20
21602;DHT22;10963;50.934;4.668;2023-02-28T12:45:24;6.40;94.80
21602;DHT22;10963;50.934;4.668;2023-02-28T12:47:59;6.50;96.20
21602;DHT22;10963;50.934;4.668;2023-02-28T12:50:27;6.40;94.50
21602;DHT22;10963;50.934;4.668;2023-02-28T13:03:44;6.40;94.20
21602;DHT22;10963;50.934;4.668;2023-02-28T13:09:16;6.30;94.80
21602;DHT22;10963;50.934;4.668;2023-02-28T13:11:47;6.40;95.70
21602;DHT22;10963;50.934;4.668;2023-02-28T13:17:24;6.70;93.30
21602;DHT22;10963;50.934;4.668;2023-02-28T13:24:55;6.40;93.10
21602;DHT22;10963;50.934;4.668;2023-02-28T13:29:50;6.50;93.80
21602;DHT22;10963;50.934;4.668;2023-02-28T13:39:49;6.50;94.80
21602;DHT22;10963;50.934;4.668;2023-02-28T13:47:31;6.60;94.10
21602;DHT22;10963;50.934;4.668;2023-02-28T13:52:58;6.80;93.30
21602;DHT22;10963;50.934;4.668;2023-02-28T14:11:31;6.30;93.20
21602;DHT22;10963;50.934;4.668;2023-02-28T14:14:01;6.30;94.60
21602;DHT22;10963;50.934;4.668;2023-02-28T14:16:43;6.40;93.40
21602;DHT22;10963;50.934;4.668;2023-02-28T14:19:30;6.50;95.10
21602;DHT22;10963;50.934;4.668;2023-02-28T14:38:53;6.60;94.50
21602;DHT22;10963;50.934;4.668;2023-02-28T14:41:36;6.50;95.00
21602;DHT22;10963;50.934;4.668;2023-02-28T14:44:23;6.50;94.50
21602;DHT22;10963;50.934;4.668;2023-02-28T14:47:02;6.50;94.20
21602;DHT22;10963;50.934;4.668;2023-02-28T14:49:51;6.50;94.60
21602;DHT22;10963;50.934;4.668;2023-02-28T14:52:25;6.50;94.50
21602;DHT22;10963;50.934;4.668;2023-02-28T14:54:55;6.50;93.90
21602;DHT22;10963;50.934;4.668;2023-02-28T15:00:06;6.60;95.20
21602;DHT22;10963;50.934;4.668;2023-02-28T15:02:39;6.50;94.20
21602;DHT22;10963;50.934;4.668;2023-02-28T15:07:44;6.50;94.70
21602;DHT22;10963;50.934;4.668;2023-02-28T15:15:26;6.60;94.30
21602;DHT22;10963;50.934;4.668;2023-02-28T15:17:57;6.60;94.40
21602;DHT22;10963;50.934;4.668;2023-02-28T15:20:27;6.50;94.20
21602;DHT22;10963;50.934;4.668;2023-02-28T15:22:56;6.50;94.60
21602;DHT22;10963;50.934;4.668;2023-02-28T15:25:22;6.50;95.80
21602;DHT22;10963;50.934;4.668;2023-02-28T15:27:53;6.40;95.40
21602;DHT22;10963;50.934;4.668;2023-02-28T15:30:28;6.40;94.50
21602;DHT22;10963;50.934;4.668;2023-02-28T15:35:39;6.50;96.20
21602;DHT22;10963;50.934;4.668;2023-02-28T15:38:23;6.50;95.60
21602;DHT22;10963;50.934;4.668;2023-02-28T15:40:58;6.50;95.60
21602;DHT22;10963;50.934;4.668;2023-02-28T15:46:10;6.30;95.40
21602;DHT22;10963;50.934;4.668;2023-02-28T15:48:56;6.20;95.80
21602;DHT22;10963;50.934;4.668;2023-02-28T15:54:04;6.10;95.30
21602;DHT22;10963;50.934;4.668;2023-02-28T15:56:32;6.10;95.90
21602;DHT22;10963;50.934;4.668;2023-02-28T15:59:01;6.10;95.70
21602;DHT22;10963;50.934;4.668;2023-02-28T16:01:33;6.20;96.30
21602;DHT22;10963;50.934;4.668;2023-02-28T16:04:05;6.10;96.10
21602;DHT22;10963;50.934;4.668;2023-02-28T16:08:59;6.20;95.60
21602;DHT22;10963;50.934;4.668;2023-02-28T16:11:25;6.20;96.20
21602;DHT22;10963;50.934;4.668;2023-02-28T16:13:51;6.30;96.80
21602;DHT22;10963;50.934;4.668;2023-02-28T16:16:19;6.30;96.70
21602;DHT22;10963;50.934;4.668;2023-02-28T16:18:45;6.20;95.80
21602;DHT22;10963;50.934;4.668;2023-02-28T16:21:11;6.10;96.50
21602;DHT22;10963;50.934;4.668;2023-02-28T16:23:37;6.20;97.20
21602;DHT22;10963;50.934;4.668;2023-02-28T16:26:04;6.00;96.10
21602;DHT22;10963;50.934;4.668;2023-02-28T16:28:34;5.80;96.30
21602;DHT22;10963;50.934;4.668;2023-02-28T16:31:07;5.80;96.20
21602;DHT22;10963;50.934;4.668;2023-02-28T16:33:36;5.80;96.60
21602;DHT22;10963;50.934;4.668;2023-02-28T16:36:05;5.80;96.50
21602;DHT22;10963;50.934;4.668;2023-02-28T16:38:31;5.70;96.70
21602;DHT22;10963;50.934;4.668;2023-02-28T16:40:59;5.70;96.50
21602;DHT22;10963;50.934;4.668;2023-02-28T16:43:27;5.70;96.90
21602;DHT22;10963;50.934;4.668;2023-02-28T16:45:57;5.70;96.60
21602;DHT22;10963;50.934;4.668;2023-02-28T16:48:28;5.80;96.00
21602;DHT22;10963;50.934;4.668;2023-02-28T16:50:57;5.60;96.70
21602;DHT22;10963;50.934;4.668;2023-02-28T16:53:22;5.60;96.60
21602;DHT22;10963;50.934;4.668;2023-02-28T16:55:48;5.70;97.10
21602;DHT22;10963;50.934;4.668;2023-02-28T16:58:16;5.60;97.60
21602;DHT22;10963;50.934;4.668;2023-02-28T17:00:42;5.60;97.50
21602;DHT22;10963;50.934;4.668;2023-02-28T17:03:24;5.60;97.30
21602;DHT22;10963;50.934;4.668;2023-02-28T17:05:50;5.50;97.80
21602;DHT22;10963;50.934;4.668;2023-02-28T17:08:18;5.60;97.60
21602;DHT22;10963;50.934;4.668;2023-02-28T17:10:49;5.60;97.70
21602;DHT22;10963;50.934;4.668;2023-02-28T17:13:17;5.60;97.50
21602;DHT22;10963;50.934;4.668;2023-02-28T17:15:44;5.50;97.50
21602;DHT22;10963;50.934;4.668;2023-02-28T17:18:17;5.50;97.90
21602;DHT22;10963;50.934;4.668;2023-02-28T17:20:49;5.50;97.70
21602;DHT22;10963;50.934;4.668;2023-02-28T17:23:15;5.60;97.50
21602;DHT22;10963;50.934;4.668;2023-02-28T17:25:43;5.40;98.00
21602;DHT22;10963;50.934;4.668;2023-02-28T17:28:21;5.30;98.60
21602;DHT22;10963;50.934;4.668;2023-02-28T17:30:48;5.20;98.60
21602;DHT22;10963;50.934;4.668;2023-02-28T17:33:16;5.20;98.80
21602;DHT22;10963;50.934;4.668;2023-02-28T17:35:42;5.10;98.90
21602;DHT22;10963;50.934;4.668;2023-02-28T17:38:19;5.00;99.30
21602;DHT22;10963;50.934;4.668;2023-02-28T17:40:47;4.90;99.60
21602;DHT22;10963;50.934;4.668;2023-02-28T17:43:15;5.00;99.60
21602;DHT22;10963;50.934;4.668;2023-02-28T17:45:43;4.90;99.80
21602;DHT22;10963;50.934;4.668;2023-02-28T17:48:13;4.80;99.90
21602;DHT22;10963;50.934;4.668;2023-02-28T17:50:39;4.80;99.90
21602;DHT22;10963;50.934;4.668;2023-02-28T17:53:05;4.80;99.90
21602;DHT22;10963;50.934;4.668;2023-02-28T17:55:30;4.80;99.90
21602;DHT22;10963;50.934;4.668;2023-02-28T17:57:56;4.80;99.90
21602;DHT22;10963;50.934;4.668;2023-02-28T18:00:22;4.80;99.90
21602;DHT22;10963;50.934;4.668;2023-02-28T18:02:52;4.70;99.90
21602;DHT22;10963;50.934;4.668;2023-02-28T18:05:17;4.70;99.90
21602;DHT22;10963;50.934;4.668;2023-02-28T18:07:43;4.70;99.90
21602;DHT22;10963;50.934;4.668;2023-02-28T18:10:14;4.60;99.90
21602;DHT22;10963;50.934;4.668;2023-02-28T18:12:46;4.60;99.90
21602;DHT22;10963;50.934;4.668;2023-02-28T18:15:13;4.40;99.90
21602;DHT22;10963;50.934;4.668;2023-02-28T18:17:42;4.40;99.90
21602;DHT22;10963;50.934;4.668;2023-02-28T18:20:09;4.30;99.90
21602;DHT22;10963;50.934;4.668;2023-02-28T18:22:37;4.40;99.90
21602;DHT22;10963;50.934;4.668;2023-02-28T18:25:09;4.60;99.90
21602;DHT22;10963;50.934;4.668;2023-02-28T18:27:39;4.50;99.90
21602;DHT22;10963;50.934;4.668;2023-02-28T18:30:05;4.40;99.90
21602;DHT22;10963;50.934;4.668;2023-02-28T18:32:31;4.20;99.90
21602;DHT22;10963;50.934;4.668;2023-02-28T18:34:57;4.10;99.90
21602;DHT22;10963;50.934;4.668;2023-02-28T18:37:22;4.00;99.90
21602;DHT22;10963;50.934;4.668;2023-02-28T18:39:48;3.90;99.90
21602;DHT22;10963;50.934;4.668;2023-02-28T18:42:14;3.80;99.90
21602;DHT22;10963;50.934;4.668;2023-02-28T18:44:40;3.80;99.90
21602;DHT22;10963;50.934;4.668;2023-02-28T18:47:06;3.70;99.90
21602;DHT22;10963;50.934;4.668;2023-02-28T18:49:32;3.60;99.90
21602;DHT22;10963;50.934;4.668;2023-02-28T18:52:02;3.50;99.90
21602;DHT22;10963;50.934;4.668;2023-02-28T18:54:28;3.50;99.90
21602;DHT22;10963;50.934;4.668;2023-02-28T18:56:54;3.50;99.90
21602;DHT22;10963;50.934;4.668;2023-02-28T18:59:23;3.40;99.90
21602;DHT22;10963;50.934;4.668;2023-02-28T19:01:48;3.40;99.90
21602;DHT22;10963;50.934;4.668;2023-02-28T19:04:14;3.40;99.90
21602;DHT22;10963;50.934;4.668;2023-02-28T19:06:40;3.40;99.90
21602;DHT22;10963;50.934;4.668;2023-02-28T19:09:06;3.30;99.90
21602;DHT22;10963;50.934;4.668;2023-02-28T19:11:32;3.30;99.90
21602;DHT22;10963;50.934;4.668;2023-02-28T19:14:04;3.30;99.90
21602;DHT22;10963;50.934;4.668;2023-02-28T19:16:29;3.30;99.90
21602;DHT22;10963;50.934;4.668;2023-02-28T19:18:55;3.30;99.90
21602;DHT22;10963;50.934;4.668;2023-02-28T19:21:23;3.30;99.90
21602;DHT22;10963;50.934;4.668;2023-02-28T19:23:49;3.20;99.90
21602;DHT22;10963;50.934;4.668;2023-02-28T19:26:23;3.10;99.90
21602;DHT22;10963;50.934;4.668;2023-02-28T19:28:49;3.00;99.90
21602;DHT22;10963;50.934;4.668;2023-02-28T19:31:24;2.90;99.90